sensor_id;sensor_type;location;lat;lon;timestamp;temperature;humidity
18160;DHT22;9205;52.032;4.314;2024-02-16T00:02:17;12.50;99.90
18160;DHT22;9205;52.032;4.314;2024-02-16T00:04:44;12.40;99.90
18160;DHT22;9205;52.032;4.314;2024-02-16T00:07:12;12.50;99.90
18160;DHT22;9205;52.032;4.314;2024-02-16T00:09:39;12.50;99.90
18160;DHT22;9205;52.032;4.314;2024-02-16T00:12:06;12.50;99.90
18160;DHT22;9205;52.032;4.314;2024-02-16T00:14:33;12.50;99.90
18160;DHT22;9205;52.032;4.314;2024-02-16T00:17:01;12.50;99.90
18160;DHT22;9205;52.032;4.314;2024-02-16T00:19:29;12.50;99.90
18160;DHT22;9205;52.032;4.314;2024-02-16T00:21:57;12.50;99.90
18160;DHT22;9205;52.032;4.314;2024-02-16T00:24:25;12.40;99.90
18160;DHT22;9205;52.032;4.314;2024-02-16T00:26:52;12.30;1.00
18160;DHT22;9205;52.032;4.314;2024-02-16T00:29:19;12.40;99.90
18160;DHT22;9205;52.032;4.314;2024-02-16T00:31:46;12.30;99.90
18160;DHT22;9205;52.032;4.314;2024-02-16T00:34:12;12.30;99.90
18160;DHT22;9205;52.032;4.314;2024-02-16T00:36:41;12.40;99.90
18160;DHT22;9205;52.032;4.314;2024-02-16T00:39:08;12.30;99.90
18160;DHT22;9205;52.032;4.314;2024-02-16T00:41:35;12.40;99.90
18160;DHT22;9205;52.032;4.314;2024-02-16T00:44:02;12.30;99.90
18160;DHT22;9205;52.032;4.314;2024-02-16T00:46:29;12.30;99.90
18160;DHT22;9205;52.032;4.314;2024-02-16T00:48:57;12.30;99.90
18160;DHT22;9205;52.032;4.314;2024-02-16T00:51:24;12.30;99.90
18160;DHT22;9205;52.032;4.314;2024-02-16T00:53:53;12.30;99.90
18160;DHT22;9205;52.032;4.314;2024-02-16T00:56:20;12.30;99.90
18160;DHT22;9205;52.032;4.314;2024-02-16T00:58:47;12.30;99.90
18160;DHT22;9205;52.032;4.314;2024-02-16T01:01:14;12.10;99.90
18160;DHT22;9205;52.032;4.314;2024-02-16T01:03:42;12.30;99.90
18160;DHT22;9205;52.032;4.314;2024-02-16T01:06:09;12.30;99.90
18160;DHT22;9205;52.032;4.314;2024-02-16T01:08:37;12.20;99.90
18160;DHT22;9205;52.032;4.314;2024-02-16T01:11:05;12.20;99.90
18160;DHT22;9205;52.032;4.314;2024-02-16T01:13:33;12.30;99.90
18160;DHT22;9205;52.032;4.314;2024-02-16T01:16:00;12.20;99.90
18160;DHT22;9205;52.032;4.314;2024-02-16T01:18:29;12.10;99.90
18160;DHT22;9205;52.032;4.314;2024-02-16T01:20:58;12.30;99.90
18160;DHT22;9205;52.032;4.314;2024-02-16T01:23:25;12.20;99.90
18160;DHT22;9205;52.032;4.314;2024-02-16T01:25:53;12.20;99.90
18160;DHT22;9205;52.032;4.314;2024-02-16T01:28:21;12.10;99.90
18160;DHT22;9205;52.032;4.314;2024-02-16T01:30:49;12.10;99.90
18160;DHT22;9205;52.032;4.314;2024-02-16T01:33:16;12.10;99.90
18160;DHT22;9205;52.032;4.314;2024-02-16T01:35:43;12.20;99.90
18160;DHT22;9205;52.032;4.314;2024-02-16T01:38:11;12.10;99.90
18160;DHT22;9205;52.032;4.314;2024-02-16T01:40:38;12.20;99.90
18160;DHT22;9205;52.032;4.314;2024-02-16T01:43:06;12.10;99.90
18160;DHT22;9205;52.032;4.314;2024-02-16T01:45:34;12.10;99.90
18160;DHT22;9205;52.032;4.314;2024-02-16T01:48:02;12.10;99.90
18160;DHT22;9205;52.032;4.314;2024-02-16T01:50:30;12.10;99.90
18160;DHT22;9205;52.032;4.314;2024-02-16T01:52:59;12.00;99.90
18160;DHT22;9205;52.032;4.314;2024-02-16T01:55:26;12.00;99.90
18160;DHT22;9205;52.032;4.314;2024-02-16T01:57:57;12.10;99.90
18160;DHT22;9205;52.032;4.314;2024-02-16T02:00:26;12.00;99.90
18160;DHT22;9205;52.032;4.314;2024-02-16T02:02:54;12.10;99.90
18160;DHT22;9205;52.032;4.314;2024-02-16T02:05:22;12.10;99.90
18160;DHT22;9205;52.032;4.314;2024-02-16T02:07:50;12.00;99.90
18160;DHT22;9205;52.032;4.314;2024-02-16T02:10:17;12.00;99.90
18160;DHT22;9205;52.032;4.314;2024-02-16T02:12:44;12.00;99.90
18160;DHT22;9205;52.032;4.314;2024-02-16T02:15:12;12.00;99.90
18160;DHT22;9205;52.032;4.314;2024-02-16T02:17:39;12.00;99.90
18160;DHT22;9205;52.032;4.314;2024-02-16T02:20:08;12.10;99.90
18160;DHT22;9205;52.032;4.314;2024-02-16T02:22:38;12.00;99.90
18160;DHT22;9205;52.032;4.314;2024-02-16T02:25:05;12.00;99.90
18160;DHT22;9205;52.032;4.314;2024-02-16T02:27:36;12.00;99.90
18160;DHT22;9205;52.032;4.314;2024-02-16T02:30:04;12.00;99.90
18160;DHT22;9205;52.032;4.314;2024-02-16T02:32:32;12.00;99.90
18160;DHT22;9205;52.032;4.314;2024-02-16T02:34:59;11.90;99.90
18160;DHT22;9205;52.032;4.314;2024-02-16T02:37:26;12.00;99.90
18160;DHT22;9205;52.032;4.314;2024-02-16T02:39:55;11.90;99.90
18160;DHT22;9205;52.032;4.314;2024-02-16T02:42:22;12.00;99.90
18160;DHT22;9205;52.032;4.314;2024-02-16T02:44:49;11.90;99.90
18160;DHT22;9205;52.032;4.314;2024-02-16T02:47:16;11.90;99.90
18160;DHT22;9205;52.032;4.314;2024-02-16T02:49:44;11.90;99.90
18160;DHT22;9205;52.032;4.314;2024-02-16T02:52:11;11.90;99.90
18160;DHT22;9205;52.032;4.314;2024-02-16T02:54:38;11.90;99.90
18160;DHT22;9205;52.032;4.314;2024-02-16T02:57:07;12.00;99.90
18160;DHT22;9205;52.032;4.314;2024-02-16T02:59:34;12.00;99.90
18160;DHT22;9205;52.032;4.314;2024-02-16T03:02:01;11.90;99.90
18160;DHT22;9205;52.032;4.314;2024-02-16T03:04:28;12.00;99.90
18160;DHT22;9205;52.032;4.314;2024-02-16T03:06:55;11.90;99.90
18160;DHT22;9205;52.032;4.314;2024-02-16T03:09:22;11.90;99.90
18160;DHT22;9205;52.032;4.314;2024-02-16T03:11:49;12.00;99.90
18160;DHT22;9205;52.032;4.314;2024-02-16T03:14:18;11.90;99.90
18160;DHT22;9205;52.032;4.314;2024-02-16T03:16:45;12.00;99.90
18160;DHT22;9205;52.032;4.314;2024-02-16T03:19:12;11.90;99.90
18160;DHT22;9205;52.032;4.314;2024-02-16T03:21:40;12.00;99.90
18160;DHT22;9205;52.032;4.314;2024-02-16T03:24:07;11.90;99.90
18160;DHT22;9205;52.032;4.314;2024-02-16T03:26:34;12.00;99.90
18160;DHT22;9205;52.032;4.314;2024-02-16T03:29:01;12.00;99.90
18160;DHT22;9205;52.032;4.314;2024-02-16T03:31:30;12.00;99.90
18160;DHT22;9205;52.032;4.314;2024-02-16T03:33:59;12.00;99.90
18160;DHT22;9205;52.032;4.314;2024-02-16T03:36:26;11.90;99.90
18160;DHT22;9205;52.032;4.314;2024-02-16T03:38:53;11.90;99.90
18160;DHT22;9205;52.032;4.314;2024-02-16T03:41:21;11.90;99.90
18160;DHT22;9205;52.032;4.314;2024-02-16T03:43:50;11.90;99.90
18160;DHT22;9205;52.032;4.314;2024-02-16T03:46:18;11.80;99.90
18160;DHT22;9205;52.032;4.314;2024-02-16T03:48:47;11.80;1.00
18160;DHT22;9205;52.032;4.314;2024-02-16T03:51:14;11.80;1.00
18160;DHT22;9205;52.032;4.314;2024-02-16T03:53:41;11.80;1.00
18160;DHT22;9205;52.032;4.314;2024-02-16T03:56:10;11.80;1.00
18160;DHT22;9205;52.032;4.314;2024-02-16T03:58:38;11.80;1.00
18160;DHT22;9205;52.032;4.314;2024-02-16T04:01:05;11.80;1.00
18160;DHT22;9205;52.032;4.314;2024-02-16T04:03:32;11.70;1.00
18160;DHT22;9205;52.032;4.314;2024-02-16T04:06:00;11.80;1.00
18160;DHT22;9205;52.032;4.314;2024-02-16T04:08:30;11.70;1.00
18160;DHT22;9205;52.032;4.314;2024-02-16T04:10:57;11.70;1.00
18160;DHT22;9205;52.032;4.314;2024-02-16T04:13:24;11.60;1.00
18160;DHT22;9205;52.032;4.314;2024-02-16T04:15:51;11.60;1.00
18160;DHT22;9205;52.032;4.314;2024-02-16T04:18:19;11.60;1.00
18160;DHT22;9205;52.032;4.314;2024-02-16T04:20:46;11.70;1.00
18160;DHT22;9205;52.032;4.314;2024-02-16T04:23:14;11.50;1.00
18160;DHT22;9205;52.032;4.314;2024-02-16T04:25:42;11.60;1.00
18160;DHT22;9205;52.032;4.314;2024-02-16T04:28:09;11.50;1.00
18160;DHT22;9205;52.032;4.314;2024-02-16T04:30:36;11.60;1.00
18160;DHT22;9205;52.032;4.314;2024-02-16T04:33:04;11.60;1.00
18160;DHT22;9205;52.032;4.314;2024-02-16T04:35:31;11.40;1.00
18160;DHT22;9205;52.032;4.314;2024-02-16T04:37:59;11.60;1.00
18160;DHT22;9205;52.032;4.314;2024-02-16T04:40:27;11.50;1.00
18160;DHT22;9205;52.032;4.314;2024-02-16T04:42:54;11.60;1.00
18160;DHT22;9205;52.032;4.314;2024-02-16T04:45:23;11.60;1.00
18160;DHT22;9205;52.032;4.314;2024-02-16T04:47:50;11.70;1.00
18160;DHT22;9205;52.032;4.314;2024-02-16T04:50:17;11.80;1.00
18160;DHT22;9205;52.032;4.314;2024-02-16T04:52:44;11.80;1.00
18160;DHT22;9205;52.032;4.314;2024-02-16T04:55:12;11.80;1.00
18160;DHT22;9205;52.032;4.314;2024-02-16T04:57:40;11.90;1.00
18160;DHT22;9205;52.032;4.314;2024-02-16T05:00:08;11.90;1.00
18160;DHT22;9205;52.032;4.314;2024-02-16T05:02:36;11.90;1.00
18160;DHT22;9205;52.032;4.314;2024-02-16T05:05:03;12.00;1.00
18160;DHT22;9205;52.032;4.314;2024-02-16T05:07:31;12.00;1.00
18160;DHT22;9205;52.032;4.314;2024-02-16T05:09:58;11.90;1.00
18160;DHT22;9205;52.032;4.314;2024-02-16T05:12:26;11.90;1.00
18160;DHT22;9205;52.032;4.314;2024-02-16T05:14:56;12.00;1.00
18160;DHT22;9205;52.032;4.314;2024-02-16T05:17:23;12.00;1.00
18160;DHT22;9205;52.032;4.314;2024-02-16T05:19:50;12.00;1.00
18160;DHT22;9205;52.032;4.314;2024-02-16T05:22:19;12.00;1.00
18160;DHT22;9205;52.032;4.314;2024-02-16T05:24:47;11.90;1.00
18160;DHT22;9205;52.032;4.314;2024-02-16T05:27:14;12.00;1.00
18160;DHT22;9205;52.032;4.314;2024-02-16T05:29:42;12.00;1.00
18160;DHT22;9205;52.032;4.314;2024-02-16T05:32:11;11.90;1.00
18160;DHT22;9205;52.032;4.314;2024-02-16T05:34:38;12.00;1.00
18160;DHT22;9205;52.032;4.314;2024-02-16T05:37:06;12.00;1.00
18160;DHT22;9205;52.032;4.314;2024-02-16T05:39:36;11.90;1.00
18160;DHT22;9205;52.032;4.314;2024-02-16T05:42:19;12.00;1.00
18160;DHT22;9205;52.032;4.314;2024-02-16T05:44:47;12.00;1.00
18160;DHT22;9205;52.032;4.314;2024-02-16T05:47:16;12.00;1.00
18160;DHT22;9205;52.032;4.314;2024-02-16T05:49:45;12.00;1.00
18160;DHT22;9205;52.032;4.314;2024-02-16T05:52:12;12.00;1.00
18160;DHT22;9205;52.032;4.314;2024-02-16T05:54:46;11.90;1.00
18160;DHT22;9205;52.032;4.314;2024-02-16T05:57:16;11.80;1.00
18160;DHT22;9205;52.032;4.314;2024-02-16T05:59:43;11.80;1.00
18160;DHT22;9205;52.032;4.314;2024-02-16T06:02:11;11.90;1.00
18160;DHT22;9205;52.032;4.314;2024-02-16T06:04:39;11.80;1.00
18160;DHT22;9205;52.032;4.314;2024-02-16T06:07:07;11.90;1.00
18160;DHT22;9205;52.032;4.314;2024-02-16T06:09:35;11.80;1.00
18160;DHT22;9205;52.032;4.314;2024-02-16T06:12:04;11.90;36.60
18160;DHT22;9205;52.032;4.314;2024-02-16T06:14:33;12.00;91.80
18160;DHT22;9205;52.032;4.314;2024-02-16T06:17:02;12.00;99.90
18160;DHT22;9205;52.032;4.314;2024-02-16T06:19:30;12.00;99.90
18160;DHT22;9205;52.032;4.314;2024-02-16T06:21:58;11.90;99.90
18160;DHT22;9205;52.032;4.314;2024-02-16T06:24:25;11.90;99.90
18160;DHT22;9205;52.032;4.314;2024-02-16T06:26:53;12.00;99.90
18160;DHT22;9205;52.032;4.314;2024-02-16T06:29:21;12.00;99.90
18160;DHT22;9205;52.032;4.314;2024-02-16T06:31:48;12.10;99.90
18160;DHT22;9205;52.032;4.314;2024-02-16T06:34:15;12.10;99.90
18160;DHT22;9205;52.032;4.314;2024-02-16T06:36:42;12.10;99.90
18160;DHT22;9205;52.032;4.314;2024-02-16T06:39:11;12.10;99.90
18160;DHT22;9205;52.032;4.314;2024-02-16T06:41:42;12.10;99.90
18160;DHT22;9205;52.032;4.314;2024-02-16T06:44:09;12.20;99.90
18160;DHT22;9205;52.032;4.314;2024-02-16T06:46:37;12.10;99.90
18160;DHT22;9205;52.032;4.314;2024-02-16T06:49:04;12.10;99.90
18160;DHT22;9205;52.032;4.314;2024-02-16T06:51:31;12.10;99.90
18160;DHT22;9205;52.032;4.314;2024-02-16T06:53:58;12.20;99.90
18160;DHT22;9205;52.032;4.314;2024-02-16T06:56:27;12.20;99.90
18160;DHT22;9205;52.032;4.314;2024-02-16T06:58:54;12.30;99.90
18160;DHT22;9205;52.032;4.314;2024-02-16T07:01:21;12.10;99.90
18160;DHT22;9205;52.032;4.314;2024-02-16T07:03:49;12.20;99.90
18160;DHT22;9205;52.032;4.314;2024-02-16T07:06:16;12.10;99.90
18160;DHT22;9205;52.032;4.314;2024-02-16T07:08:44;12.20;99.90
18160;DHT22;9205;52.032;4.314;2024-02-16T07:11:11;12.30;99.90
18160;DHT22;9205;52.032;4.314;2024-02-16T07:13:40;12.30;99.90
18160;DHT22;9205;52.032;4.314;2024-02-16T07:16:08;12.20;1.00
18160;DHT22;9205;52.032;4.314;2024-02-16T07:18:36;12.30;1.00
18160;DHT22;9205;52.032;4.314;2024-02-16T07:21:04;12.20;1.00
18160;DHT22;9205;52.032;4.314;2024-02-16T07:23:31;12.20;1.00
18160;DHT22;9205;52.032;4.314;2024-02-16T07:25:58;12.40;1.00
18160;DHT22;9205;52.032;4.314;2024-02-16T07:28:27;12.20;1.00
18160;DHT22;9205;52.032;4.314;2024-02-16T07:30:56;12.30;1.00
18160;DHT22;9205;52.032;4.314;2024-02-16T07:33:23;12.20;1.00
18160;DHT22;9205;52.032;4.314;2024-02-16T07:35:53;12.40;1.00
18160;DHT22;9205;52.032;4.314;2024-02-16T07:38:21;12.50;1.00
18160;DHT22;9205;52.032;4.314;2024-02-16T07:40:48;12.40;1.00
18160;DHT22;9205;52.032;4.314;2024-02-16T07:43:16;12.30;1.00
18160;DHT22;9205;52.032;4.314;2024-02-16T07:45:44;12.30;1.00
18160;DHT22;9205;52.032;4.314;2024-02-16T07:48:12;12.40;1.00
18160;DHT22;9205;52.032;4.314;2024-02-16T07:50:39;12.50;1.00
18160;DHT22;9205;52.032;4.314;2024-02-16T07:53:07;12.50;1.00
18160;DHT22;9205;52.032;4.314;2024-02-16T07:55:36;12.60;1.00
18160;DHT22;9205;52.032;4.314;2024-02-16T07:58:04;12.40;1.00
18160;DHT22;9205;52.032;4.314;2024-02-16T08:00:31;12.60;1.00
18160;DHT22;9205;52.032;4.314;2024-02-16T08:02:58;12.50;1.00
18160;DHT22;9205;52.032;4.314;2024-02-16T08:05:27;12.40;1.00
18160;DHT22;9205;52.032;4.314;2024-02-16T08:07:54;12.40;1.00
18160;DHT22;9205;52.032;4.314;2024-02-16T08:10:22;12.50;1.00
18160;DHT22;9205;52.032;4.314;2024-02-16T08:12:50;12.30;1.00
18160;DHT22;9205;52.032;4.314;2024-02-16T08:15:18;12.20;47.20
18160;DHT22;9205;52.032;4.314;2024-02-16T08:17:48;12.20;98.80
18160;DHT22;9205;52.032;4.314;2024-02-16T08:20:16;12.20;99.90
18160;DHT22;9205;52.032;4.314;2024-02-16T08:22:45;12.30;99.90
18160;DHT22;9205;52.032;4.314;2024-02-16T08:25:12;12.50;99.90
18160;DHT22;9205;52.032;4.314;2024-02-16T08:27:39;12.40;99.90
18160;DHT22;9205;52.032;4.314;2024-02-16T08:30:07;12.20;99.90
18160;DHT22;9205;52.032;4.314;2024-02-16T08:32:35;12.50;99.90
18160;DHT22;9205;52.032;4.314;2024-02-16T08:35:03;12.50;99.90
18160;DHT22;9205;52.032;4.314;2024-02-16T08:37:30;12.30;99.90
18160;DHT22;9205;52.032;4.314;2024-02-16T08:40:01;12.40;99.90
18160;DHT22;9205;52.032;4.314;2024-02-16T08:42:30;12.40;99.90
18160;DHT22;9205;52.032;4.314;2024-02-16T08:44:57;12.10;99.90
18160;DHT22;9205;52.032;4.314;2024-02-16T08:47:25;12.20;99.90
18160;DHT22;9205;52.032;4.314;2024-02-16T08:49:53;12.00;99.90
18160;DHT22;9205;52.032;4.314;2024-02-16T08:52:20;12.30;99.90
18160;DHT22;9205;52.032;4.314;2024-02-16T08:54:47;12.00;99.90
18160;DHT22;9205;52.032;4.314;2024-02-16T08:57:15;12.20;99.90
18160;DHT22;9205;52.032;4.314;2024-02-16T08:59:43;12.20;99.90
18160;DHT22;9205;52.032;4.314;2024-02-16T09:02:11;12.00;99.90
18160;DHT22;9205;52.032;4.314;2024-02-16T09:04:38;11.90;99.90
18160;DHT22;9205;52.032;4.314;2024-02-16T09:07:06;12.10;99.90
18160;DHT22;9205;52.032;4.314;2024-02-16T09:09:33;12.10;99.90
18160;DHT22;9205;52.032;4.314;2024-02-16T09:12:00;12.10;99.90
18160;DHT22;9205;52.032;4.314;2024-02-16T09:14:29;11.80;99.90
18160;DHT22;9205;52.032;4.314;2024-02-16T09:16:57;12.10;99.90
18160;DHT22;9205;52.032;4.314;2024-02-16T09:19:25;12.00;99.90
18160;DHT22;9205;52.032;4.314;2024-02-16T09:21:52;12.00;99.90
18160;DHT22;9205;52.032;4.314;2024-02-16T09:24:20;11.80;99.90
18160;DHT22;9205;52.032;4.314;2024-02-16T09:26:48;11.80;99.90
18160;DHT22;9205;52.032;4.314;2024-02-16T09:29:15;11.70;99.90
18160;DHT22;9205;52.032;4.314;2024-02-16T09:31:44;11.90;99.90
18160;DHT22;9205;52.032;4.314;2024-02-16T09:34:15;11.90;99.90
18160;DHT22;9205;52.032;4.314;2024-02-16T09:36:43;11.70;99.90
18160;DHT22;9205;52.032;4.314;2024-02-16T09:39:10;11.70;99.90
18160;DHT22;9205;52.032;4.314;2024-02-16T09:41:41;11.70;99.90
18160;DHT22;9205;52.032;4.314;2024-02-16T09:44:09;11.50;99.90
18160;DHT22;9205;52.032;4.314;2024-02-16T09:46:37;11.40;99.90
18160;DHT22;9205;52.032;4.314;2024-02-16T09:49:05;11.40;99.90
18160;DHT22;9205;52.032;4.314;2024-02-16T09:51:36;11.60;99.90
18160;DHT22;9205;52.032;4.314;2024-02-16T09:54:04;11.70;99.90
18160;DHT22;9205;52.032;4.314;2024-02-16T09:56:32;11.40;99.90
18160;DHT22;9205;52.032;4.314;2024-02-16T09:59:00;11.30;99.90
18160;DHT22;9205;52.032;4.314;2024-02-16T10:01:27;11.40;99.90
18160;DHT22;9205;52.032;4.314;2024-02-16T10:04:06;11.30;99.90
18160;DHT22;9205;52.032;4.314;2024-02-16T10:06:44;11.20;99.90
18160;DHT22;9205;52.032;4.314;2024-02-16T10:09:22;11.20;99.90
18160;DHT22;9205;52.032;4.314;2024-02-16T10:11:49;11.30;99.90
18160;DHT22;9205;52.032;4.314;2024-02-16T10:14:17;11.50;99.90
18160;DHT22;9205;52.032;4.314;2024-02-16T10:16:45;11.50;99.90
18160;DHT22;9205;52.032;4.314;2024-02-16T10:19:17;11.40;99.90
18160;DHT22;9205;52.032;4.314;2024-02-16T10:21:44;11.20;99.90
18160;DHT22;9205;52.032;4.314;2024-02-16T10:24:12;11.20;99.90
18160;DHT22;9205;52.032;4.314;2024-02-16T10:26:40;11.10;99.90
18160;DHT22;9205;52.032;4.314;2024-02-16T10:29:09;11.10;99.90
18160;DHT22;9205;52.032;4.314;2024-02-16T10:31:39;11.50;99.90
18160;DHT22;9205;52.032;4.314;2024-02-16T10:34:06;11.00;99.90
18160;DHT22;9205;52.032;4.314;2024-02-16T10:36:37;11.10;99.90
18160;DHT22;9205;52.032;4.314;2024-02-16T10:39:07;11.00;99.90
18160;DHT22;9205;52.032;4.314;2024-02-16T10:41:38;11.20;99.90
18160;DHT22;9205;52.032;4.314;2024-02-16T10:44:07;11.10;99.90
18160;DHT22;9205;52.032;4.314;2024-02-16T10:46:35;11.00;99.90
18160;DHT22;9205;52.032;4.314;2024-02-16T10:49:03;11.00;99.90
18160;DHT22;9205;52.032;4.314;2024-02-16T10:51:36;11.40;99.90
18160;DHT22;9205;52.032;4.314;2024-02-16T10:54:07;11.40;99.90
18160;DHT22;9205;52.032;4.314;2024-02-16T10:56:35;11.50;99.90
18160;DHT22;9205;52.032;4.314;2024-02-16T10:59:05;10.90;99.90
18160;DHT22;9205;52.032;4.314;2024-02-16T11:01:37;10.90;99.90
18160;DHT22;9205;52.032;4.314;2024-02-16T11:04:06;11.00;99.90
18160;DHT22;9205;52.032;4.314;2024-02-16T11:06:52;11.30;99.90
18160;DHT22;9205;52.032;4.314;2024-02-16T11:09:28;10.80;99.90
18160;DHT22;9205;52.032;4.314;2024-02-16T11:11:59;11.10;99.90
18160;DHT22;9205;52.032;4.314;2024-02-16T11:14:34;11.30;99.90
18160;DHT22;9205;52.032;4.314;2024-02-16T11:17:07;11.20;99.90
18160;DHT22;9205;52.032;4.314;2024-02-16T11:19:36;11.30;99.90
18160;DHT22;9205;52.032;4.314;2024-02-16T11:22:05;11.40;99.90
18160;DHT22;9205;52.032;4.314;2024-02-16T11:24:35;11.30;99.90
18160;DHT22;9205;52.032;4.314;2024-02-16T11:27:04;11.20;99.90
18160;DHT22;9205;52.032;4.314;2024-02-16T11:29:32;11.10;99.90
18160;DHT22;9205;52.032;4.314;2024-02-16T11:32:01;11.40;99.90
18160;DHT22;9205;52.032;4.314;2024-02-16T11:34:29;10.90;99.90
18160;DHT22;9205;52.032;4.314;2024-02-16T11:36:57;10.90;99.90
18160;DHT22;9205;52.032;4.314;2024-02-16T11:39:28;11.10;99.90
18160;DHT22;9205;52.032;4.314;2024-02-16T11:42:00;11.60;99.90
18160;DHT22;9205;52.032;4.314;2024-02-16T11:44:29;11.40;99.90
18160;DHT22;9205;52.032;4.314;2024-02-16T11:46:57;11.30;99.90
18160;DHT22;9205;52.032;4.314;2024-02-16T11:49:25;11.30;99.90
18160;DHT22;9205;52.032;4.314;2024-02-16T11:51:52;11.20;99.90
18160;DHT22;9205;52.032;4.314;2024-02-16T11:54:19;11.80;99.90
18160;DHT22;9205;52.032;4.314;2024-02-16T11:56:48;11.50;99.90
18160;DHT22;9205;52.032;4.314;2024-02-16T11:59:17;11.80;99.90
18160;DHT22;9205;52.032;4.314;2024-02-16T12:01:49;11.40;99.90
18160;DHT22;9205;52.032;4.314;2024-02-16T12:04:24;11.20;99.90
18160;DHT22;9205;52.032;4.314;2024-02-16T12:06:53;11.80;99.90
18160;DHT22;9205;52.032;4.314;2024-02-16T12:09:22;11.80;99.90
18160;DHT22;9205;52.032;4.314;2024-02-16T12:11:53;11.60;99.90
18160;DHT22;9205;52.032;4.314;2024-02-16T12:14:22;11.40;99.90
18160;DHT22;9205;52.032;4.314;2024-02-16T12:16:50;11.70;99.90
18160;DHT22;9205;52.032;4.314;2024-02-16T12:19:18;11.60;99.90
18160;DHT22;9205;52.032;4.314;2024-02-16T12:21:49;11.40;99.90
18160;DHT22;9205;52.032;4.314;2024-02-16T12:24:17;11.70;99.90
18160;DHT22;9205;52.032;4.314;2024-02-16T12:26:44;11.80;99.90
18160;DHT22;9205;52.032;4.314;2024-02-16T12:29:13;11.50;99.90
18160;DHT22;9205;52.032;4.314;2024-02-16T12:31:42;11.40;99.90
18160;DHT22;9205;52.032;4.314;2024-02-16T12:34:11;11.70;99.90
18160;DHT22;9205;52.032;4.314;2024-02-16T12:36:39;11.80;99.90
18160;DHT22;9205;52.032;4.314;2024-02-16T12:39:07;11.60;99.90
18160;DHT22;9205;52.032;4.314;2024-02-16T12:41:37;11.50;99.90
18160;DHT22;9205;52.032;4.314;2024-02-16T12:44:04;11.60;99.90
18160;DHT22;9205;52.032;4.314;2024-02-16T12:46:33;11.70;99.90
18160;DHT22;9205;52.032;4.314;2024-02-16T12:49:00;11.90;99.90
18160;DHT22;9205;52.032;4.314;2024-02-16T12:51:27;12.20;99.90
18160;DHT22;9205;52.032;4.314;2024-02-16T12:53:55;11.80;99.90
18160;DHT22;9205;52.032;4.314;2024-02-16T12:56:22;11.70;99.90
18160;DHT22;9205;52.032;4.314;2024-02-16T12:58:49;11.80;99.90
18160;DHT22;9205;52.032;4.314;2024-02-16T13:01:16;11.80;99.90
18160;DHT22;9205;52.032;4.314;2024-02-16T13:03:45;12.30;99.90
18160;DHT22;9205;52.032;4.314;2024-02-16T13:06:12;12.10;99.90
18160;DHT22;9205;52.032;4.314;2024-02-16T13:08:39;12.00;99.90
18160;DHT22;9205;52.032;4.314;2024-02-16T13:11:06;12.00;99.90
18160;DHT22;9205;52.032;4.314;2024-02-16T13:13:34;12.50;99.90
18160;DHT22;9205;52.032;4.314;2024-02-16T13:16:01;12.30;99.90
18160;DHT22;9205;52.032;4.314;2024-02-16T13:18:28;12.20;99.90
18160;DHT22;9205;52.032;4.314;2024-02-16T13:20:56;11.90;99.90
18160;DHT22;9205;52.032;4.314;2024-02-16T13:23:24;12.30;99.90
18160;DHT22;9205;52.032;4.314;2024-02-16T13:25:51;12.20;99.90
18160;DHT22;9205;52.032;4.314;2024-02-16T13:28:18;11.90;99.90
18160;DHT22;9205;52.032;4.314;2024-02-16T13:30:45;12.00;99.90
18160;DHT22;9205;52.032;4.314;2024-02-16T13:33:12;12.40;99.90
18160;DHT22;9205;52.032;4.314;2024-02-16T13:35:39;12.00;99.90
18160;DHT22;9205;52.032;4.314;2024-02-16T13:38:08;12.20;99.90
18160;DHT22;9205;52.032;4.314;2024-02-16T13:40:35;12.50;99.90
18160;DHT22;9205;52.032;4.314;2024-02-16T13:43:02;12.60;99.90
18160;DHT22;9205;52.032;4.314;2024-02-16T13:45:49;12.20;99.90
18160;DHT22;9205;52.032;4.314;2024-02-16T13:48:17;12.30;99.90
18160;DHT22;9205;52.032;4.314;2024-02-16T13:50:46;12.50;99.90
18160;DHT22;9205;52.032;4.314;2024-02-16T13:53:15;12.40;99.90
18160;DHT22;9205;52.032;4.314;2024-02-16T13:55:43;12.30;99.90
18160;DHT22;9205;52.032;4.314;2024-02-16T13:58:11;12.30;99.90
18160;DHT22;9205;52.032;4.314;2024-02-16T14:00:38;12.20;99.90
18160;DHT22;9205;52.032;4.314;2024-02-16T14:03:06;12.20;99.90
18160;DHT22;9205;52.032;4.314;2024-02-16T14:05:36;12.30;99.90
18160;DHT22;9205;52.032;4.314;2024-02-16T14:08:05;12.40;99.90
18160;DHT22;9205;52.032;4.314;2024-02-16T14:10:34;12.50;99.90
18160;DHT22;9205;52.032;4.314;2024-02-16T14:13:01;12.50;99.90
18160;DHT22;9205;52.032;4.314;2024-02-16T14:15:29;12.30;99.90
18160;DHT22;9205;52.032;4.314;2024-02-16T14:17:56;12.50;99.90
18160;DHT22;9205;52.032;4.314;2024-02-16T14:20:24;12.60;99.90
18160;DHT22;9205;52.032;4.314;2024-02-16T14:22:52;12.60;99.90
18160;DHT22;9205;52.032;4.314;2024-02-16T14:25:19;12.60;99.90
18160;DHT22;9205;52.032;4.314;2024-02-16T14:27:48;12.40;99.90
18160;DHT22;9205;52.032;4.314;2024-02-16T14:30:15;12.40;99.90
18160;DHT22;9205;52.032;4.314;2024-02-16T14:32:42;12.60;99.90
18160;DHT22;9205;52.032;4.314;2024-02-16T14:35:10;12.60;99.90
18160;DHT22;9205;52.032;4.314;2024-02-16T14:37:37;12.70;99.90
18160;DHT22;9205;52.032;4.314;2024-02-16T14:40:06;12.30;99.90
18160;DHT22;9205;52.032;4.314;2024-02-16T14:42:35;12.30;99.90
18160;DHT22;9205;52.032;4.314;2024-02-16T14:45:07;12.50;99.90
18160;DHT22;9205;52.032;4.314;2024-02-16T14:47:44;12.20;99.90
18160;DHT22;9205;52.032;4.314;2024-02-16T14:50:12;12.40;99.90
18160;DHT22;9205;52.032;4.314;2024-02-16T14:52:39;12.30;99.90
18160;DHT22;9205;52.032;4.314;2024-02-16T14:55:08;12.10;99.90
18160;DHT22;9205;52.032;4.314;2024-02-16T14:57:36;12.40;99.90
18160;DHT22;9205;52.032;4.314;2024-02-16T15:00:04;12.00;99.90
18160;DHT22;9205;52.032;4.314;2024-02-16T15:02:33;12.20;99.90
18160;DHT22;9205;52.032;4.314;2024-02-16T15:05:02;12.00;99.90
18160;DHT22;9205;52.032;4.314;2024-02-16T15:07:29;11.90;99.90
18160;DHT22;9205;52.032;4.314;2024-02-16T15:09:57;12.00;99.90
18160;DHT22;9205;52.032;4.314;2024-02-16T15:12:24;11.90;99.90
18160;DHT22;9205;52.032;4.314;2024-02-16T15:14:51;11.80;99.90
18160;DHT22;9205;52.032;4.314;2024-02-16T15:17:19;11.80;99.90
18160;DHT22;9205;52.032;4.314;2024-02-16T15:19:47;12.00;99.90
18160;DHT22;9205;52.032;4.314;2024-02-16T15:22:14;11.70;99.90
18160;DHT22;9205;52.032;4.314;2024-02-16T15:24:41;11.70;99.90
18160;DHT22;9205;52.032;4.314;2024-02-16T15:27:09;11.90;99.90
18160;DHT22;9205;52.032;4.314;2024-02-16T15:29:36;12.00;99.90
18160;DHT22;9205;52.032;4.314;2024-02-16T15:32:04;11.80;99.90
18160;DHT22;9205;52.032;4.314;2024-02-16T15:34:33;11.50;99.90
18160;DHT22;9205;52.032;4.314;2024-02-16T15:37:00;11.50;99.90
18160;DHT22;9205;52.032;4.314;2024-02-16T15:39:27;11.60;99.90
18160;DHT22;9205;52.032;4.314;2024-02-16T15:41:55;11.50;99.90
18160;DHT22;9205;52.032;4.314;2024-02-16T15:44:22;11.60;99.90
18160;DHT22;9205;52.032;4.314;2024-02-16T15:46:49;11.70;99.90
18160;DHT22;9205;52.032;4.314;2024-02-16T15:49:17;11.60;99.90
18160;DHT22;9205;52.032;4.314;2024-02-16T15:51:45;11.60;99.90
18160;DHT22;9205;52.032;4.314;2024-02-16T15:54:13;11.60;99.90
18160;DHT22;9205;52.032;4.314;2024-02-16T15:56:40;11.60;99.90